Time;durP1;ratioP1;P1;durP2;ratioP2;P2;SDS_P1;SDS_P2;PMS_P1;PMS_P2;Temp;Humidity;BMP_temperature;BMP_pressure;BME280_temperature;BME280_humidity;BME280_pressure;Samples;Min_cycle;Max_cycle;Signal;HPM_P1;HPM_P2
2022/07/01 00:00:27;;;;;;;15.10;12.30;;;;;;;21.20;71.06;99571.48;214156;1274;140983;-64
2022/07/01 00:05:38;;;;;;;13.60;11.90;;;;;;;21.22;71.10;99570.21;214602;1274;140183;-64
2022/07/01 00:10:43;;;;;;;15.50;12.20;;;;;;;21.14;71.08;99567.89;215817;1274;139858;-65
2022/07/01 00:15:47;;;;;;;13.20;11.80;;;;;;;21.17;71.28;99567.64;215635;1274;141338;-65
2022/07/01 00:20:53;;;;;;;15.30;10.60;;;;;;;21.22;71.33;99559.81;215917;1274;140898;-64
2022/07/01 00:25:58;;;;;;;13.40;11.10;;;;;;;21.27;71.27;99564.27;215661;1274;141299;-64
2022/07/01 00:31:02;;;;;;;11.10;10.20;;;;;;;21.28;71.29;99558.69;215481;1275;140483;-64
2022/07/01 00:36:07;;;;;;;14.00;10.00;;;;;;;21.25;71.17;99551.87;214744;1275;139883;-63
2022/07/01 00:41:12;;;;;;;11.40;10.30;;;;;;;21.17;71.26;99542.83;214813;1274;141109;-64
2022/07/01 00:46:17;;;;;;;11.30;10.40;;;;;;;21.21;71.55;99542.21;213915;1274;423546;-66
2022/07/01 00:51:28;;;;;;;13.70;11.90;;;;;;;21.26;71.59;99543.61;214120;1274;140006;-65
2022/07/01 00:56:32;;;;;;;12.60;11.30;;;;;;;21.25;71.59;99543.70;214166;1275;140589;-65
2022/07/01 01:01:37;;;;;;;12.30;10.90;;;;;;;21.23;71.65;99545.00;215472;1274;140698;-65
2022/07/01 01:06:42;;;;;;;11.50;10.20;;;;;;;21.20;71.52;99550.05;213612;1274;140608;-65
2022/07/01 01:11:46;;;;;;;15.50;11.20;;;;;;;21.17;71.49;99551.27;213363;1274;141121;-64
2022/07/01 01:16:50;;;;;;;12.70;9.90;;;;;;;21.14;71.50;99542.36;214369;1274;140443;-64
2022/07/01 01:21:55;;;;;;;16.90;9.80;;;;;;;21.07;71.37;99540.16;213370;1274;139584;-64
2022/07/01 01:27:00;;;;;;;16.40;10.20;;;;;;;20.94;71.44;99533.43;213236;1274;140551;-64
2022/07/01 01:32:07;;;;;;;16.50;10.70;;;;;;;20.87;71.59;99534.68;213862;1274;140418;-64
2022/07/01 01:37:12;;;;;;;12.40;10.30;;;;;;;20.83;71.83;99531.88;213285;1274;140221;-64
2022/07/01 01:42:16;;;;;;;12.90;9.60;;;;;;;20.84;72.16;99532.08;213955;1274;140520;-64
2022/07/01 01:47:21;;;;;;;13.50;9.70;;;;;;;20.87;72.22;99528.61;215068;1274;140940;-65
2022/07/01 01:52:25;;;;;;;10.10;8.80;;;;;;;20.87;72.09;99524.70;213819;1274;141437;-65
2022/07/01 01:57:29;;;;;;;13.10;8.50;;;;;;;20.87;72.00;99525.09;214639;1273;140434;-65
2022/07/01 02:02:36;;;;;;;16.80;9.90;;;;;;;20.90;71.91;99520.36;214445;1274;140349;-66
2022/07/01 02:07:41;;;;;;;11.20;8.90;;;;;;;20.91;71.94;99522.27;216041;1274;140223;-66
2022/07/01 02:12:44;;;;;;;11.40;9.30;;;;;;;20.90;71.77;99523.11;216028;1274;140255;-66
2022/07/01 02:17:48;;;;;;;14.00;8.10;;;;;;;20.92;71.66;99522.42;215952;1273;140823;-66
2022/07/01 02:22:53;;;;;;;18.00;9.60;;;;;;;20.99;71.67;99513.00;216143;1274;140642;-66
2022/07/01 02:27:58;;;;;;;10.80;9.80;;;;;;;21.04;71.60;99509.95;216092;1274;140688;-66
2022/07/01 02:33:03;;;;;;;13.90;9.70;;;;;;;21.04;71.40;99509.66;216007;1274;140592;-66
2022/07/01 02:38:08;;;;;;;10.80;9.10;;;;;;;21.06;71.33;99520.52;213649;1274;141728;-65
2022/07/01 02:43:16;;;;;;;10.60;8.80;;;;;;;21.08;71.28;99514.11;215253;1274;140165;-65
2022/07/01 02:48:21;;;;;;;17.20;9.90;;;;;;;21.05;71.04;99510.09;214025;1274;142365;-65
2022/07/01 02:53:25;;;;;;;12.10;8.70;;;;;;;21.01;71.00;99512.06;213972;1276;139499;-65
2022/07/01 02:58:30;;;;;;;13.00;8.60;;;;;;;21.00;71.01;99519.13;215071;1274;142657;-65
2022/07/01 03:03:34;;;;;;;12.70;9.60;;;;;;;21.03;70.91;99515.98;213747;1274;141018;-64
2022/07/01 03:08:39;;;;;;;10.20;9.30;;;;;;;21.03;70.79;99514.13;214469;1274;140083;-66
2022/07/01 03:13:43;;;;;;;15.80;9.80;;;;;;;21.03;71.03;99519.77;215357;1274;139513;-64
2022/07/01 03:18:48;;;;;;;15.90;10.00;;;;;;;21.12;70.94;99518.27;213226;1274;140541;-64
2022/07/01 03:23:53;;;;;;;17.80;9.10;;;;;;;21.22;70.82;99523.02;213987;1274;141835;-65
2022/07/01 03:28:57;;;;;;;11.50;9.90;;;;;;;21.30;70.74;99522.38;213873;1274;140859;-64
2022/07/01 03:34:01;;;;;;;13.40;9.10;;;;;;;21.39;70.63;99520.21;213649;1274;140362;-65
2022/07/01 03:39:05;;;;;;;12.50;10.60;;;;;;;21.52;70.52;99517.72;213972;1274;141044;-66
2022/07/01 03:44:09;;;;;;;16.90;10.00;;;;;;;21.70;70.05;99510.27;214695;1271;140717;-65
2022/07/01 03:49:13;;;;;;;10.70;9.70;;;;;;;22.11;69.68;99508.44;214017;1274;139986;-65
2022/07/01 03:59:40;;;;;;;12.70;10.30;;;;;;;22.64;68.60;99494.16;215015;1274;140478;-65
2022/07/01 04:04:44;;;;;;;10.10;9.20;;;;;;;22.89;68.18;99496.73;216094;1274;141259;-66
2022/07/01 04:09:49;;;;;;;9.20;8.30;;;;;;;23.08;67.56;99492.86;214964;1274;140597;-66
2022/07/01 04:14:53;;;;;;;12.10;9.70;;;;;;;23.27;67.08;99491.27;214934;1274;140933;-66
2022/07/01 04:19:57;;;;;;;9.70;8.90;;;;;;;23.50;66.29;99489.52;215937;1274;139522;-66
2022/07/01 04:25:01;;;;;;;11.40;9.40;;;;;;;23.93;65.74;99484.49;215927;1274;140281;-66
2022/07/01 04:30:05;;;;;;;10.90;8.90;;;;;;;24.48;64.88;99482.48;215111;1274;140684;-65
2022/07/01 04:35:12;;;;;;;10.00;8.40;;;;;;;25.37;63.65;99470.85;214307;1273;142395;-66
2022/07/01 04:40:16;;;;;;;12.60;8.60;;;;;;;26.01;62.33;99472.69;214860;1274;140856;-65
2022/07/01 04:45:20;;;;;;;9.40;7.70;;;;;;;28.08;59.82;99465.05;214964;1274;141336;-64
2022/07/01 04:50:24;;;;;;;10.80;8.80;;;;;;;29.66;57.63;99461.77;214170;1274;246017;-63
2022/07/01 04:55:28;;;;;;;10.00;8.90;;;;;;;30.96;55.27;99463.70;213925;1273;139669;-63
2022/07/01 05:00:33;;;;;;;10.70;8.30;;;;;;;31.03;53.88;99466.84;213570;1273;140230;-64
2022/07/01 05:05:37;;;;;;;9.70;7.50;;;;;;;31.14;52.42;99469.16;214087;1273;206151;-64
2022/07/01 05:10:42;;;;;;;8.90;8.10;;;;;;;31.89;51.07;99465.14;214216;1274;210250;-64
2022/07/01 05:15:46;;;;;;;;;;;;;;;34.26;48.10;99470.53;214624;1274;140649;-65
2022/07/01 05:26:17;;;;;;;6.40;5.80;;;;;;;39.34;41.66;99470.96;213272;1274;140497;-64
2022/07/01 05:31:21;;;;;;;6.00;5.30;;;;;;;41.02;38.94;99469.62;214216;1274;140156;-64
2022/07/01 05:36:25;;;;;;;4.90;4.50;;;;;;;42.35;36.56;99478.90;213558;1274;139510;-65
2022/07/01 05:41:29;;;;;;;12.70;5.40;;;;;;;43.64;34.54;99471.59;214281;1274;139501;-66
2022/07/01 05:46:33;;;;;;;4.70;4.30;;;;;;;44.21;32.32;99467.55;214022;1275;139351;-66
2022/07/01 05:51:41;;;;;;;4.90;4.50;;;;;;;44.86;31.47;99469.20;214126;1274;139992;-66
2022/07/01 05:56:45;;;;;;;5.10;4.70;;;;;;;45.45;29.70;99471.45;213291;1274;139604;-67
2022/07/01 06:01:50;;;;;;;6.60;5.70;;;;;;;45.34;28.31;99464.23;215423;1274;139532;-66
2022/07/01 06:06:55;;;;;;;6.20;4.00;;;;;;;45.02;27.51;99462.27;215370;1274;139303;-67
2022/07/01 06:11:59;;;;;;;5.80;4.70;;;;;;;44.44;27.16;99457.10;215352;1274;139357;-67
2022/07/01 06:17:04;;;;;;;5.30;4.90;;;;;;;44.52;27.93;99453.85;216195;1274;140201;-66
2022/07/01 06:22:08;;;;;;;4.90;4.20;;;;;;;45.00;27.55;99452.14;216380;1274;140162;-66
2022/07/01 06:27:12;;;;;;;5.20;4.50;;;;;;;45.11;27.40;99460.71;215629;1274;139435;-65
2022/07/01 06:32:16;;;;;;;5.80;5.40;;;;;;;45.08;26.59;99452.48;213428;1274;221711;-65
2022/07/01 06:37:21;;;;;;;5.70;5.20;;;;;;;44.53;26.53;99452.75;215532;1274;139237;-66
2022/07/01 06:42:29;;;;;;;5.00;4.70;;;;;;;44.38;26.98;99449.91;215294;1276;140321;-65
2022/07/01 06:47:36;;;;;;;6.60;4.70;;;;;;;44.42;27.01;99448.05;214986;1274;151246;-65
2022/07/01 06:52:41;;;;;;;5.70;4.10;;;;;;;43.78;26.44;99444.73;213967;1274;159068;-65
2022/07/01 06:57:48;;;;;;;8.00;5.20;;;;;;;43.11;26.67;99447.86;214872;1274;140200;-65
2022/07/01 07:02:52;;;;;;;6.00;5.00;;;;;;;42.43;27.41;99447.88;214496;1274;139146;-67
2022/07/01 07:07:57;;;;;;;5.70;5.30;;;;;;;42.42;27.81;99448.61;214671;1274;140204;-65
2022/07/01 07:13:14;;;;;;;5.40;5.00;;;;;;;42.22;28.04;99447.65;213313;1274;139760;-67
2022/07/01 07:18:19;;;;;;;5.50;5.10;;;;;;;42.18;28.30;99440.74;214235;1274;140084;-68
2022/07/01 07:23:25;;;;;;;6.40;5.70;;;;;;;42.26;28.80;99436.50;214540;1274;140053;-68
2022/07/01 07:28:30;;;;;;;6.90;5.50;;;;;;;42.54;28.72;99440.98;213331;1275;139476;-68
2022/07/01 07:33:34;;;;;;;6.00;5.40;;;;;;;42.02;28.99;99442.91;214881;1274;140338;-68
2022/07/01 07:38:39;;;;;;;7.10;6.30;;;;;;;41.18;29.62;99439.88;214416;1274;142919;-67
2022/07/01 07:43:43;;;;;;;8.50;7.30;;;;;;;40.68;30.45;99440.64;213400;1273;140330;-67
2022/07/01 07:48:47;;;;;;;7.00;6.40;;;;;;;39.74;30.50;99443.45;214718;1274;140539;-66
2022/07/01 07:53:51;;;;;;;9.70;7.00;;;;;;;39.38;31.86;99445.73;214203;1273;140284;-66
2022/07/01 07:58:56;;;;;;;7.10;6.40;;;;;;;39.42;32.32;99447.61;214446;1274;141922;-65
2022/07/01 08:04:00;;;;;;;7.50;6.50;;;;;;;39.21;32.75;99451.16;214769;1273;139478;-66
2022/07/01 08:09:04;;;;;;;8.10;7.40;;;;;;;39.21;33.59;99445.27;214617;1274;141270;-66
2022/07/01 08:14:08;;;;;;;9.00;7.80;;;;;;;38.95;32.84;99444.44;216172;1274;139655;-67
2022/07/01 08:19:15;;;;;;;8.00;7.40;;;;;;;38.32;33.12;99448.35;215766;1274;139699;-66
2022/07/01 08:24:19;;;;;;;8.40;7.60;;;;;;;37.86;33.49;99446.99;215827;1274;139763;-66
2022/07/01 08:29:26;;;;;;;8.60;7.60;;;;;;;37.71;34.42;99448.95;215918;1274;140569;-66
2022/07/01 08:34:30;;;;;;;9.20;8.30;;;;;;;37.63;34.94;99437.77;215339;1274;140429;-66
2022/07/01 08:39:34;;;;;;;9.30;8.50;;;;;;;37.54;34.69;99429.45;215633;1274;140557;-65
2022/07/01 08:44:37;;;;;;;8.10;7.60;;;;;;;37.44;35.45;99430.33;214195;1274;139632;-64
2022/07/01 08:49:41;;;;;;;9.50;8.70;;;;;;;37.40;35.88;99426.90;215417;1274;140933;-65
2022/07/01 08:54:45;;;;;;;8.20;7.60;;;;;;;37.60;35.97;99425.77;214884;1273;139468;-66
2022/07/01 09:00:07;;;;;;;9.00;8.10;;;;;;;37.49;35.00;99425.89;215186;1274;140151;-65
2022/07/01 09:05:11;;;;;;;14.50;8.80;;;;;;;37.29;35.53;99420.09;215251;1274;141195;-66
2022/07/01 09:10:18;;;;;;;12.10;8.50;;;;;;;36.99;35.04;99422.70;213248;1276;141787;-65
2022/07/01 09:15:34;;;;;;;10.70;9.60;;;;;;;36.77;35.98;99423.42;214093;1274;140550;-66
2022/07/01 09:20:41;;;;;;;10.00;9.10;;;;;;;36.64;35.96;99422.17;214183;1274;140299;-66
2022/07/01 09:25:51;;;;;;;13.70;8.80;;;;;;;36.53;35.84;99417.24;213784;1274;139753;-66
2022/07/01 09:30:59;;;;;;;10.50;9.60;;;;;;;36.50;36.57;99421.02;214424;1274;140924;-66
2022/07/01 09:36:04;;;;;;;11.00;9.00;;;;;;;36.70;36.85;99420.75;213819;1274;141394;-66
2022/07/01 09:41:11;;;;;;;9.20;8.30;;;;;;;36.72;36.56;99422.71;214074;1274;142275;-64
2022/07/01 09:46:16;;;;;;;8.80;8.30;;;;;;;36.76;36.50;99422.02;213815;1274;141350;-65
2022/07/01 09:51:19;;;;;;;10.40;9.40;;;;;;;36.52;36.06;99421.23;213234;1274;140159;-66
2022/07/01 09:56:24;;;;;;;9.20;8.30;;;;;;;36.50;36.40;99419.02;214242;1274;140942;-66
2022/07/01 10:01:28;;;;;;;10.40;9.50;;;;;;;36.44;36.71;99411.56;214713;1274;143005;-66
2022/07/01 10:06:52;;;;;;;10.30;9.30;;;;;;;36.53;36.81;99410.82;215424;1274;140938;-67
2022/07/01 10:12:42;;;;;;;11.20;9.50;;;;;;;36.56;36.13;99408.25;215502;1274;140206;-66
2022/07/01 10:17:51;;;;;;;9.60;8.90;;;;;;;36.52;36.22;99416.39;215905;1274;140531;-68
2022/07/01 10:23:06;;;;;;;14.60;9.00;;;;;;;36.58;36.05;99413.30;215662;1275;140133;-68
2022/07/01 10:28:12;;;;;;;11.80;8.10;;;;;;;36.71;36.01;99410.58;214638;1274;140522;-67
2022/07/01 10:33:31;;;;;;;9.20;8.30;;;;;;;36.85;35.66;99403.48;215784;1274;140834;-66
2022/07/01 10:38:55;;;;;;;12.10;9.80;;;;;;;37.03;35.39;99402.33;215913;1273;139459;-68
2022/07/01 10:44:03;;;;;;;8.70;8.00;;;;;;;37.05;35.43;99402.77;215523;1274;140012;-66
2022/07/01 10:49:08;;;;;;;8.90;8.10;;;;;;;37.08;35.40;99395.72;215275;1274;139480;-65
2022/07/01 10:54:11;;;;;;;8.40;7.70;;;;;;;37.06;35.05;99390.91;214649;1274;139929;-65
2022/07/01 10:59:18;;;;;;;9.60;8.80;;;;;;;37.05;34.95;99387.59;214946;1274;140375;-64
2022/07/01 11:04:22;;;;;;;8.40;7.70;;;;;;;37.14;35.12;99380.64;214775;1273;141426;-63
2022/07/01 11:09:27;;;;;;;8.60;7.80;;;;;;;37.21;35.30;99373.08;214843;1274;140978;-66
2022/07/01 11:14:37;;;;;;;9.20;8.30;;;;;;;37.35;35.53;99368.94;213368;1274;141958;-63
2022/07/01 11:19:56;;;;;;;10.00;7.90;;;;;;;37.33;35.03;99356.82;213435;1274;141645;-66
2022/07/01 11:25:03;;;;;;;9.40;8.70;;;;;;;37.34;34.83;99347.82;213431;1274;140921;-65
2022/07/01 11:30:12;;;;;;;11.50;7.40;;;;;;;37.25;34.54;99342.28;214102;1274;141517;-66
2022/07/01 11:40:48;;;;;;;8.10;7.30;;;;;;;37.40;33.43;99324.84;214956;1274;141225;-64
2022/07/01 11:45:54;;;;;;;6.90;6.40;;;;;;;37.32;33.07;99315.53;215218;1274;221128;-63
2022/07/01 11:51:00;;;;;;;7.40;6.20;;;;;;;37.30;32.45;99301.52;213003;1273;139585;-65
2022/07/01 11:56:11;;;;;;;7.30;6.70;;;;;;;37.20;32.41;99286.45;214813;1274;140151;-65
2022/07/01 12:01:25;;;;;;;8.50;6.90;;;;;;;37.25;32.20;99282.63;215354;1274;140186;-64
2022/07/01 12:06:32;;;;;;;8.00;7.30;;;;;;;36.98;32.21;99284.85;215782;1274;141427;-64
2022/07/01 12:11:39;;;;;;;6.50;6.00;;;;;;;36.72;32.16;99274.94;214897;1274;141488;-65
2022/07/01 12:16:44;;;;;;;11.10;6.70;;;;;;;36.96;32.49;99279.95;215469;1274;140068;-66
2022/07/01 12:21:53;;;;;;;6.90;6.40;;;;;;;37.11;32.10;99284.06;215953;1274;140233;-66
2022/07/01 12:27:02;;;;;;;10.00;6.70;;;;;;;37.30;31.67;99276.90;215694;1274;139152;-66
2022/07/01 12:32:11;;;;;;;6.80;6.10;;;;;;;37.42;31.59;99271.27;215864;1273;139934;-65
2022/07/01 12:37:19;;;;;;;6.00;5.30;;;;;;;37.39;30.87;99269.41;215734;1274;140182;-65
2022/07/01 12:42:28;;;;;;;5.70;5.30;;;;;;;37.53;30.86;99260.81;213732;1273;1185934;-66
2022/07/01 12:47:47;;;;;;;7.50;6.70;;;;;;;37.67;30.36;99259.24;214710;1274;140063;-66
2022/07/01 12:53:11;;;;;;;5.20;4.80;;;;;;;37.71;30.06;99260.36;214325;1274;140131;-63
2022/07/01 12:58:20;;;;;;;5.90;5.40;;;;;;;37.81;29.59;99254.68;214324;1274;140068;-65
2022/07/01 13:03:26;;;;;;;6.40;5.20;;;;;;;37.69;29.20;99253.34;213793;1274;139980;-64
2022/07/01 13:08:30;;;;;;;6.80;5.90;;;;;;;37.72;29.30;99258.59;214345;1274;141547;-63
2022/07/01 13:13:34;;;;;;;6.30;5.70;;;;;;;37.73;28.85;99252.20;214608;1274;139321;-64
2022/07/01 13:18:39;;;;;;;12.40;5.60;;;;;;;37.69;28.65;99249.20;213626;1274;207737;-63
2022/07/01 13:23:43;;;;;;;8.80;6.10;;;;;;;37.71;28.82;99254.79;213818;1274;140657;-63
2022/07/01 13:28:48;;;;;;;9.90;6.10;;;;;;;37.65;29.05;99255.55;214013;1274;140931;-66
2022/07/01 13:33:59;;;;;;;5.70;5.30;;;;;;;37.44;29.55;99253.52;213925;1274;139411;-65
2022/07/01 13:39:05;;;;;;;5.90;5.50;;;;;;;37.19;28.65;99265.50;213856;1274;139312;-64
2022/07/01 13:44:10;;;;;;;5.50;5.10;;;;;;;36.89;29.11;99256.83;213766;1274;141735;-65
2022/07/01 13:49:15;;;;;;;7.40;6.80;;;;;;;36.68;29.02;99244.47;214616;1274;139889;-64
2022/07/01 13:54:20;;;;;;;6.50;5.90;;;;;;;36.49;29.30;99240.41;214344;1274;140093;-64
2022/07/01 13:59:24;;;;;;;5.90;5.40;;;;;;;36.30;29.21;99233.84;213641;1274;139320;-65
2022/07/01 14:04:32;;;;;;;6.80;6.30;;;;;;;36.47;29.53;99230.77;214609;1274;139389;-66
2022/07/01 14:09:38;;;;;;;6.50;6.10;;;;;;;36.59;29.23;99219.79;214444;1274;140479;-66
2022/07/01 14:14:43;;;;;;;6.40;5.80;;;;;;;36.60;29.39;99204.94;215802;1274;140849;-68
2022/07/01 14:19:47;;;;;;;5.20;4.80;;;;;;;36.43;29.34;99201.73;215913;1274;139796;-67
2022/07/01 14:24:53;;;;;;;7.80;5.10;;;;;;;36.39;28.92;99197.05;215947;1273;139755;-66
2022/07/01 14:29:58;;;;;;;5.80;5.30;;;;;;;36.36;28.77;99193.20;215848;1273;140435;-65
2022/07/01 14:35:03;;;;;;;5.20;4.70;;;;;;;36.36;28.46;99189.24;215842;1274;141394;-65
2022/07/01 14:40:08;;;;;;;10.20;5.20;;;;;;;36.28;27.97;99191.27;215234;1274;141279;-64
2022/07/01 14:45:14;;;;;;;6.50;4.60;;;;;;;36.21;27.64;99190.41;213988;1274;140745;-64
2022/07/01 14:50:18;;;;;;;5.00;4.10;;;;;;;36.13;27.72;99196.00;215027;1274;140918;-65
2022/07/01 14:55:22;;;;;;;4.10;3.80;;;;;;;36.16;27.60;99203.73;214676;1274;139396;-63
2022/07/01 15:00:28;;;;;;;3.90;3.70;;;;;;;36.16;27.58;99204.52;214610;1274;139826;-66
2022/07/01 15:05:34;;;;;;;4.20;3.90;;;;;;;36.15;27.47;99202.46;213542;1274;139911;-66
2022/07/01 15:10:39;;;;;;;5.90;4.20;;;;;;;36.00;27.42;99196.44;214293;1273;139618;-68
2022/07/01 15:15:43;;;;;;;3.90;3.70;;;;;;;35.67;27.58;99197.98;213964;1274;139723;-66
2022/07/01 15:20:47;;;;;;;5.00;4.60;;;;;;;35.56;27.17;99197.58;214538;1274;139191;-66
2022/07/01 15:25:51;;;;;;;3.50;3.30;;;;;;;35.43;27.77;99197.13;214822;1274;141503;-67
2022/07/01 15:30:55;;;;;;;4.20;4.00;;;;;;;35.30;27.70;99197.80;212826;1275;139504;-65
2022/07/01 15:35:59;;;;;;;11.30;4.80;;;;;;;35.18;28.15;99197.95;214594;1274;140356;-65
2022/07/01 15:41:08;;;;;;;5.20;4.60;;;;;;;35.12;28.83;99209.89;213525;1274;139641;-65
2022/07/01 15:46:12;;;;;;;9.80;6.60;;;;;;;35.02;29.82;99220.42;214808;1274;140863;-65
2022/07/01 15:51:18;;;;;;;7.60;6.80;;;;;;;34.98;30.98;99235.27;214059;1274;140145;-66
2022/07/01 15:56:24;;;;;;;7.80;6.60;;;;;;;34.88;31.34;99251.44;214139;1274;141102;-66
2022/07/01 16:01:29;;;;;;;6.80;6.30;;;;;;;34.76;31.93;99249.23;214347;1274;139675;-65
2022/07/01 16:06:34;;;;;;;6.70;6.10;;;;;;;34.64;33.04;99239.91;213750;1274;140029;-65
2022/07/01 16:11:42;;;;;;;13.60;8.10;;;;;;;34.56;33.23;99239.18;214669;1274;139145;-66
2022/07/01 16:16:48;;;;;;;7.40;6.80;;;;;;;34.42;34.05;99245.16;215378;1274;139646;-66
2022/07/01 16:21:53;;;;;;;7.30;6.70;;;;;;;34.19;34.36;99261.34;215647;1274;140074;-66
2022/07/01 16:26:57;;;;;;;10.00;8.60;;;;;;;33.46;34.17;99318.23;215711;1274;139755;-67
2022/07/01 16:32:02;;;;;;;12.30;11.00;;;;;;;32.73;35.64;99363.63;215381;1272;139627;-66
2022/07/01 16:37:12;;;;;;;13.00;11.80;;;;;;;32.15;37.79;99384.88;215912;1274;140070;-66
2022/07/01 16:46:41;;;;;;;13.40;11.30;;;;;;;31.03;40.53;99438.69;212418;1315;684093;-68
2022/07/01 18:35:18;;;;;;;20.40;16.50;;;;;;;25.04;61.12;99591.33;207393;1314;141341;-63
2022/07/01 18:40:22;;;;;;;17.50;15.30;;;;;;;25.01;61.30;99610.13;213039;1289;162090;-62
2022/07/01 18:45:25;;;;;;;17.20;15.70;;;;;;;24.95;61.91;99629.05;212666;1288;139181;-67
2022/07/01 18:50:28;;;;;;;16.00;14.40;;;;;;;24.94;62.22;99650.13;212649;1288;139885;-64
2022/07/01 18:55:31;;;;;;;19.00;14.30;;;;;;;24.89;62.33;99667.34;212087;1288;139939;-63
2022/07/01 19:00:37;;;;;;;16.00;13.20;;;;;;;24.83;62.54;99689.58;212166;1289;140918;-64
2022/07/01 19:05:40;;;;;;;14.00;12.50;;;;;;;24.82;62.38;99675.52;212938;1279;141610;-65
2022/07/01 19:10:43;;;;;;;13.60;12.30;;;;;;;24.80;61.90;99657.43;212644;1279;141696;-67
2022/07/01 19:16:09;;;;;;;12.60;11.50;;;;;;;24.70;62.07;99641.35;213265;1281;139502;-64
2022/07/01 19:21:17;;;;;;;11.80;10.60;;;;;;;24.59;61.64;99662.54;212920;1279;139419;-64
2022/07/01 19:26:21;;;;;;;12.00;10.60;;;;;;;24.42;61.51;99645.54;213075;1279;139248;-66
2022/07/01 19:31:29;;;;;;;11.20;10.00;;;;;;;24.30;61.63;99644.02;212324;1279;138731;-64
2022/07/01 19:36:36;;;;;;;11.50;10.50;;;;;;;24.18;61.79;99634.89;213043;1279;139868;-64
2022/07/01 19:41:40;;;;;;;11.20;10.00;;;;;;;24.05;61.92;99640.11;213199;1279;141152;-64
2022/07/01 19:46:43;;;;;;;11.80;10.60;;;;;;;23.92;62.06;99668.48;212893;1279;141121;-64
2022/07/01 19:51:46;;;;;;;9.80;9.00;;;;;;;23.84;62.27;99673.45;213505;1279;139021;-65
2022/07/01 19:56:49;;;;;;;11.30;10.10;;;;;;;23.81;62.64;99691.14;213163;1279;140264;-64
2022/07/01 20:01:53;;;;;;;10.90;9.90;;;;;;;23.76;62.91;99705.30;213101;1281;139761;-66
2022/07/01 20:06:58;;;;;;;8.90;8.00;;;;;;;23.66;62.90;99725.33;213467;1279;139870;-66
2022/07/01 20:12:01;;;;;;;10.20;9.00;;;;;;;23.52;63.13;99742.70;215058;1279;140129;-64
2022/07/01 20:17:06;;;;;;;11.00;9.30;;;;;;;23.38;63.54;99781.36;215296;1279;139230;-65
2022/07/01 20:22:09;;;;;;;10.20;9.10;;;;;;;23.26;63.94;99791.68;214094;1278;141062;-65
2022/07/01 20:27:13;;;;;;;11.40;9.60;;;;;;;23.17;64.27;99785.79;215437;1279;139941;-64
2022/07/01 20:32:16;;;;;;;10.20;9.10;;;;;;;23.13;64.56;99787.38;215011;1280;140748;-66
2022/07/01 20:37:20;;;;;;;10.20;8.90;;;;;;;23.07;64.72;99792.45;214064;1279;138852;-65
2022/07/01 20:42:23;;;;;;;8.70;7.80;;;;;;;22.98;64.90;99783.33;214160;1279;140328;-65
2022/07/01 20:47:28;;;;;;;10.20;9.00;;;;;;;22.89;65.11;99785.77;214318;1279;141138;-64
2022/07/01 20:52:38;;;;;;;11.70;8.60;;;;;;;22.81;65.39;99791.23;213917;1279;161313;-64
2022/07/01 20:57:41;;;;;;;10.70;8.70;;;;;;;22.80;65.68;99789.90;212928;1279;140255;-64
2022/07/01 21:02:44;;;;;;;9.60;8.70;;;;;;;22.76;65.69;99786.12;212682;1279;140453;-68
2022/07/01 21:07:53;;;;;;;8.70;7.80;;;;;;;22.67;65.89;99781.85;213591;1279;140790;-65
2022/07/01 21:12:56;;;;;;;11.70;7.80;;;;;;;22.56;66.06;99790.55;213034;1279;140617;-66
2022/07/01 21:18:01;;;;;;;9.40;8.40;;;;;;;22.47;66.13;99792.67;212502;1280;141362;-66
2022/07/01 21:23:03;;;;;;;8.60;7.70;;;;;;;22.33;66.22;99813.49;213444;1279;139785;-63
2022/07/01 21:28:06;;;;;;;9.10;7.70;;;;;;;22.20;66.59;99838.97;214386;1279;139509;-65
2022/07/01 21:33:11;;;;;;;8.80;8.10;;;;;;;22.17;66.78;99868.81;214445;1279;139221;-64
2022/07/01 21:38:14;;;;;;;8.60;7.70;;;;;;;22.17;66.91;99891.73;213711;1279;144238;-64
2022/07/01 21:43:19;;;;;;;9.00;7.40;;;;;;;22.21;67.11;99915.48;214321;1280;140074;-63
2022/07/01 21:48:26;;;;;;;7.30;6.60;;;;;;;22.23;67.07;99936.23;212947;1279;141310;-66
2022/07/01 21:53:29;;;;;;;4.80;4.40;;;;;;;22.22;66.98;99942.06;214029;1280;142213;-65
2022/07/01 21:58:34;;;;;;;5.50;5.00;;;;;;;22.18;66.68;99961.16;215357;1279;153476;-65
2022/07/01 22:03:40;;;;;;;5.70;5.20;;;;;;;22.12;66.61;99985.13;214896;1279;140395;-65
2022/07/01 22:08:47;;;;;;;4.30;4.00;;;;;;;22.11;66.54;99990.13;215230;1279;139239;-66
2022/07/01 22:14:00;;;;;;;8.10;4.90;;;;;;;22.10;66.29;99994.61;215490;1280;138814;-65
2022/07/01 22:19:05;;;;;;;3.00;2.70;;;;;;;22.07;66.17;100008.42;215277;1279;140111;-64
2022/07/01 22:24:11;;;;;;;8.40;5.40;;;;;;;22.00;66.10;100011.92;214916;1280;141277;-65
2022/07/01 22:29:16;;;;;;;9.40;4.50;;;;;;;21.94;66.28;100002.81;213637;1280;159618;-64
2022/07/01 22:34:20;;;;;;;5.00;4.50;;;;;;;21.80;66.55;100002.37;214120;1279;140282;-65
2022/07/01 22:39:25;;;;;;;9.50;5.60;;;;;;;21.64;67.02;99986.16;213960;1279;141668;-67
2022/07/01 22:44:28;;;;;;;4.50;4.10;;;;;;;21.46;67.54;99990.73;213324;1279;140711;-66
2022/07/01 22:50:04;;;;;;;6.40;5.80;;;;;;;21.25;68.01;99952.47;214691;1280;139800;-67
2022/07/01 22:55:31;;;;;;;7.20;6.50;;;;;;;21.04;68.81;99947.30;213631;1280;139631;-66
2022/07/01 23:00:36;;;;;;;9.40;6.10;;;;;;;20.99;69.31;99955.42;213457;1279;139411;-65
2022/07/01 23:05:46;;;;;;;6.20;5.60;;;;;;;20.93;69.51;99959.52;214233;1280;140783;-64
2022/07/01 23:10:52;;;;;;;5.60;5.20;;;;;;;20.84;69.78;99989.53;213053;1280;140018;-64
2022/07/01 23:21:22;;;;;;;6.40;5.80;;;;;;;20.70;70.69;100007.21;212929;1280;151952;-66
2022/07/01 23:26:27;;;;;;;11.20;6.60;;;;;;;20.69;71.04;99999.97;213544;1281;143311;-63
2022/07/01 23:31:31;;;;;;;7.10;6.40;;;;;;;20.74;71.34;99992.81;213072;1280;141246;-66
2022/07/01 23:36:34;;;;;;;6.80;6.20;;;;;;;20.77;71.50;99984.68;213471;1280;220926;-64
2022/07/01 23:41:37;;;;;;;8.90;5.60;;;;;;;20.75;71.68;99991.48;213866;1280;139845;-65
2022/07/01 23:46:40;;;;;;;5.10;4.60;;;;;;;20.73;71.74;99995.04;215208;1277;139861;-64
2022/07/01 23:51:43;;;;;;;5.70;5.30;;;;;;;20.71;71.44;100016.73;213322;1276;161103;-66
2022/07/01 23:56:47;;;;;;;5.60;5.20;;;;;;;20.58;71.49;100033.49;214268;1277;142249;-65
